Time;durP1;ratioP1;P1;durP2;ratioP2;P2;SDS_P1;SDS_P2;PMS_P1;PMS_P2;Temp;Humidity;BMP_temperature;BMP_pressure;BME280_temperature;BME280_humidity;BME280_pressure;Samples;Min_cycle;Max_cycle;Signal;HPM_P1;HPM_P2
2022/06/09 00:02:16;;;;;;;23.57;15.83;;;17.60;99.90;;;;;;5029823;28;20224;-85
2022/06/09 00:04:44;;;;;;;20.57;15.03;;;17.60;99.90;;;;;;4997200;28;20196;-83
2022/06/09 00:07:24;;;;;;;21.80;15.57;;;17.60;99.90;;;;;;5030070;28;20629;-84
2022/06/09 00:09:57;;;;;;;21.93;15.47;;;17.60;99.90;;;;;;5014142;28;20200;-84
2022/06/09 00:12:25;;;;;;;23.63;16.57;;;17.60;99.90;;;;;;5013914;28;20712;-84
2022/06/09 00:14:56;;;;;;;21.73;15.13;;;17.60;99.90;;;;;;5030137;28;20212;-84
2022/06/09 00:17:24;;;;;;;21.43;15.43;;;17.60;99.90;;;;;;5030148;28;20353;-83
2022/06/09 00:19:52;;;;;;;24.03;15.70;;;17.60;99.90;;;;;;5029689;28;20547;-84
2022/06/09 00:22:19;;;;;;;58.57;19.27;;;17.70;99.90;;;;;;5029942;28;20220;-84
2022/06/09 00:24:46;;;;;;;24.33;15.07;;;17.70;99.90;;;;;;5029503;28;20189;-84
2022/06/09 00:27:14;;;;;;;21.77;15.30;;;17.70;99.90;;;;;;5014362;28;20639;-83
2022/06/09 00:29:43;;;;;;;25.23;15.73;;;17.70;99.90;;;;;;5014239;28;20215;-82
2022/06/09 00:32:10;;;;;;;19.97;15.20;;;17.70;99.90;;;;;;5014021;28;20553;-85
2022/06/09 00:34:41;;;;;;;22.83;14.53;;;17.80;99.90;;;;;;5029219;28;20200;-84
2022/06/09 00:37:08;;;;;;;20.40;14.97;;;17.80;99.90;;;;;;5028841;28;20290;-83
2022/06/09 00:39:35;;;;;;;20.53;14.50;;;17.80;99.90;;;;;;5030600;28;20251;-86
2022/06/09 00:42:02;;;;;;;19.07;13.83;;;17.80;99.90;;;;;;5034101;28;20223;-83
2022/06/09 00:44:35;;;;;;;20.23;14.27;;;17.80;99.90;;;;;;5016306;28;20203;-85
2022/06/09 00:47:29;;;;;;;18.77;13.90;;;17.80;99.90;;;;;;5033695;28;20231;-87
2022/06/09 00:50:19;;;;;;;17.63;13.37;;;17.70;99.90;;;;;;5033929;28;20203;-83
2022/06/09 00:52:51;;;;;;;20.00;14.00;;;17.70;99.90;;;;;;5016556;28;20294;-85
2022/06/09 00:55:24;;;;;;;18.27;13.57;;;17.70;99.90;;;;;;5033820;28;20207;-85
2022/06/09 00:58:12;;;;;;;18.03;13.70;;;17.70;99.90;;;;;;5016390;28;20191;-86
2022/06/09 01:01:01;;;;;;;20.67;14.47;;;17.70;99.90;;;;;;5021210;28;20225;-84
2022/06/09 01:03:42;;;;;;;25.60;13.23;;;17.70;99.90;;;;;;5033891;28;20196;-77
2022/06/09 01:06:20;;;;;;;20.90;13.90;;;17.80;99.90;;;;;;5032294;28;20195;-85
2022/06/09 01:08:58;;;;;;;19.90;14.33;;;17.80;99.90;;;;;;5000063;28;20287;-76
2022/06/09 01:11:25;;;;;;;18.87;13.67;;;17.80;99.90;;;;;;5016405;28;20648;-85
2022/06/09 01:13:57;;;;;;;18.90;13.80;;;17.80;99.90;;;;;;5015971;28;20230;-86
2022/06/09 01:16:43;;;;;;;19.47;14.30;;;17.90;99.90;;;;;;5016307;28;20195;-79
2022/06/09 01:19:31;;;;;;;22.00;14.57;;;17.90;99.90;;;;;;5033409;28;20684;-85
2022/06/09 01:22:52;;;;;;;19.53;14.20;;;17.90;99.90;;;;;;5016289;28;20234;-86
2022/06/09 01:25:48;;;;;;;18.83;13.97;;;17.90;99.90;;;;;;4937371;29;20210;-86
2022/06/09 01:28:34;;;;;;;20.43;15.67;;;17.90;99.90;;;;;;4953406;29;20261;-87
2022/06/09 01:31:18;;;;;;;22.83;15.33;;;17.90;99.90;;;;;;4953714;29;20205;-86
2022/06/09 01:33:54;;;;;;;20.03;15.13;;;17.90;99.90;;;;;;4956240;28;20564;-88
2022/06/09 01:37:06;;;;;;;22.53;15.90;;;17.80;99.90;;;;;;4962443;28;20289;-77
2022/06/09 01:39:45;;;;;;;21.27;15.50;;;17.80;99.90;;;;;;4966708;29;20292;-84
2022/06/09 01:42:33;;;;;;;21.17;15.10;;;17.90;99.90;;;;;;4958885;29;20218;-79
2022/06/09 01:46:01;;;;;;;21.00;15.40;;;17.80;99.90;;;;;;4967080;29;20226;-78
2022/06/09 01:48:55;;;;;;;21.63;15.30;;;17.90;99.90;;;;;;4946253;28;20207;-86
2022/06/09 01:51:24;;;;;;;23.07;15.93;;;17.90;99.90;;;;;;4940512;29;20197;-86
2022/06/09 01:54:22;;;;;;;20.43;15.10;;;17.90;99.90;;;;;;4968867;29;20193;-84
2022/06/09 01:57:19;;;;;;;25.17;17.03;;;18.00;99.90;;;;;;4968862;29;20257;-84
2022/06/09 02:00:10;;;;;;;22.20;15.77;;;18.00;99.90;;;;;;5008679;28;20199;-88
2022/06/09 02:02:47;;;;;;;24.97;15.67;;;18.00;99.90;;;;;;5023154;28;20220;-81
2022/06/09 02:05:25;;;;;;;23.30;15.53;;;18.00;99.90;;;;;;5018918;28;20238;-84
2022/06/09 02:07:58;;;;;;;21.73;16.03;;;18.00;99.90;;;;;;5025338;28;20211;-80
2022/06/09 02:10:30;;;;;;;31.63;21.47;;;18.00;99.90;;;;;;5022319;28;20230;-79
2022/06/09 02:13:23;;;;;;;23.33;17.40;;;17.90;99.90;;;;;;5018604;28;20192;-86
2022/06/09 02:16:08;;;;;;;22.17;16.50;;;18.00;99.90;;;;;;5033507;28;20274;-86
2022/06/09 02:19:16;;;;;;;22.33;16.30;;;17.90;99.90;;;;;;5026700;28;20200;-77
2022/06/09 02:21:47;;;;;;;21.00;16.40;;;17.90;99.90;;;;;;5017396;28;20240;-83
2022/06/09 02:24:15;;;;;;;24.80;17.10;;;17.90;99.90;;;;;;5033422;28;20258;-85
2022/06/09 02:26:42;;;;;;;21.87;16.67;;;17.80;99.90;;;;;;5018128;28;20193;-82
2022/06/09 02:29:09;;;;;;;22.07;16.87;;;17.80;99.90;;;;;;5035160;28;20239;-85
2022/06/09 02:31:49;;;;;;;23.47;16.87;;;17.80;99.90;;;;;;5039914;28;20204;-80
2022/06/09 02:34:19;;;;;;;22.67;16.73;;;17.80;99.90;;;;;;5017680;28;20637;-84
2022/06/09 02:36:47;;;;;;;24.37;17.13;;;17.70;99.90;;;;;;5021162;28;20279;-85
2022/06/09 02:39:14;;;;;;;21.40;15.53;;;17.70;99.90;;;;;;5032933;28;20215;-85
2022/06/09 02:41:48;;;;;;;22.87;16.77;;;17.70;99.90;;;;;;5032145;28;20232;-79
2022/06/09 02:44:16;;;;;;;22.53;16.33;;;17.70;99.90;;;;;;5033726;28;20269;-85
2022/06/09 02:46:43;;;;;;;23.87;17.40;;;17.70;99.90;;;;;;5018430;28;20200;-86
2022/06/09 02:49:10;;;;;;;23.60;17.80;;;17.70;99.90;;;;;;5032813;28;20302;-80
2022/06/09 02:51:41;;;;;;;24.57;17.73;;;17.70;99.90;;;;;;5032104;28;20207;-85
2022/06/09 02:54:16;;;;;;;24.93;18.77;;;17.70;99.90;;;;;;5019409;28;20649;-81
2022/06/09 02:56:43;;;;;;;22.40;17.70;;;17.80;99.90;;;;;;5018653;28;20548;-81
2022/06/09 02:59:11;;;;;;;23.13;17.57;;;17.70;99.90;;;;;;5032382;28;20258;-86
2022/06/09 03:01:39;;;;;;;25.47;18.43;;;17.80;99.90;;;;;;5039261;28;20566;-78
2022/06/09 03:04:11;;;;;;;29.30;19.50;;;17.80;99.90;;;;;;5015320;28;20214;-85
2022/06/09 03:06:38;;;;;;;25.43;18.03;;;17.70;99.90;;;;;;5031694;28;20196;-86
2022/06/09 03:09:05;;;;;;;27.53;19.77;;;17.70;99.90;;;;;;5016638;28;20522;-86
2022/06/09 03:11:33;;;;;;;26.93;20.00;;;17.70;99.90;;;;;;5015370;28;20200;-85
2022/06/09 03:13:59;;;;;;;27.23;19.97;;;17.60;99.90;;;;;;5013616;28;20296;-84
2022/06/09 03:16:30;;;;;;;26.23;18.80;;;17.60;99.90;;;;;;5016317;28;20266;-84
2022/06/09 03:18:57;;;;;;;27.20;20.47;;;17.70;99.90;;;;;;5014510;28;20207;-81
2022/06/09 03:21:24;;;;;;;27.93;20.10;;;17.70;99.90;;;;;;5030858;28;20208;-83
2022/06/09 03:23:51;;;;;;;30.10;20.33;;;17.70;99.90;;;;;;5030903;28;20250;-84
2022/06/09 03:26:18;;;;;;;27.07;19.67;;;17.60;99.90;;;;;;5030870;28;20192;-83
2022/06/09 03:28:47;;;;;;;28.13;20.50;;;17.60;99.90;;;;;;5033434;28;20192;-79
2022/06/09 03:31:45;;;;;;;;;;;;;;;;;;;;;
2022/06/09 03:34:13;;;;;;;29.70;20.70;;;17.70;99.90;;;;;;5016284;28;20767;-86
2022/06/09 03:36:43;;;;;;;28.63;21.13;;;17.70;99.90;;;;;;5033139;28;20374;-78
2022/06/09 03:39:11;;;;;;;30.03;21.30;;;17.80;99.90;;;;;;5017379;28;20196;-85
2022/06/09 03:41:39;;;;;;;30.37;21.47;;;17.70;99.90;;;;;;5033516;28;20238;-87
2022/06/09 03:44:06;;;;;;;32.43;21.73;;;17.70;99.90;;;;;;5017532;28;20220;-85
2022/06/09 03:46:34;;;;;;;32.90;21.73;;;17.70;99.90;;;;;;5035354;28;20183;-85
2022/06/09 03:49:03;;;;;;;31.83;21.57;;;17.60;99.90;;;;;;4978136;28;20719;-77
2022/06/09 03:51:30;;;;;;;31.00;21.57;;;17.60;99.90;;;;;;4993618;28;20201;-77
2022/06/09 03:53:57;;;;;;;30.43;21.07;;;17.60;99.90;;;;;;5001990;28;20204;-76
2022/06/09 03:56:30;;;;;;;28.77;21.53;;;17.70;99.90;;;;;;4992727;28;20263;-77
2022/06/09 03:59:00;;;;;;;29.43;21.83;;;17.70;99.90;;;;;;4993343;28;20201;-85
2022/06/09 04:01:29;;;;;;;31.10;22.30;;;17.70;99.90;;;;;;4993509;28;20638;-86
2022/06/09 04:03:56;;;;;;;33.73;23.83;;;17.70;99.90;;;;;;4977128;28;20590;-85
2022/06/09 04:06:25;;;;;;;31.40;23.80;;;17.70;99.90;;;;;;4984122;28;20633;-86
2022/06/09 04:08:53;;;;;;;30.63;23.67;;;17.70;99.90;;;;;;5033577;28;20195;-88
2022/06/09 04:11:22;;;;;;;33.97;24.23;;;17.70;99.90;;;;;;5017023;28;20290;-86
2022/06/09 04:13:49;;;;;;;34.03;24.27;;;17.70;99.90;;;;;;5034644;28;20262;-86
2022/06/09 04:16:44;;;;;;;35.43;24.33;;;17.70;99.90;;;;;;5035802;28;20551;-86
2022/06/09 04:19:14;;;;;;;32.30;23.33;;;17.70;99.90;;;;;;5025051;28;20206;-81
2022/06/09 04:21:56;;;;;;;30.47;22.23;;;17.80;99.90;;;;;;4996204;28;20202;-82
2022/06/09 04:24:27;;;;;;;32.23;22.80;;;17.90;99.90;;;;;;5020333;28;20184;-86
2022/06/09 04:27:00;;;;;;;29.30;21.77;;;17.90;99.90;;;;;;5028377;28;20201;-84
2022/06/09 04:29:30;;;;;;;28.77;21.80;;;18.00;99.90;;;;;;5019009;28;20525;-86
2022/06/09 04:32:08;;;;;;;28.77;21.17;;;18.10;99.90;;;;;;5027147;28;20192;-80
2022/06/09 04:35:18;;;;;;;30.07;21.83;;;18.10;99.90;;;;;;5009885;28;20694;-84
2022/06/09 04:38:00;;;;;;;32.70;21.53;;;18.20;99.90;;;;;;5005407;28;20530;-85
2022/06/09 04:40:40;;;;;;;30.40;21.37;;;18.30;99.90;;;;;;5046636;28;20235;-85
2022/06/09 04:43:10;;;;;;;32.17;21.53;;;18.50;99.90;;;;;;5035588;28;20253;-83
2022/06/09 04:45:40;;;;;;;29.87;21.07;;;18.50;99.90;;;;;;5016137;28;20199;-85
2022/06/09 04:48:08;;;;;;;30.03;21.13;;;18.70;99.90;;;;;;5016534;28;20289;-78
2022/06/09 04:50:36;;;;;;;28.03;21.30;;;18.60;99.90;;;;;;5021451;28;20238;-84
2022/06/09 04:53:07;;;;;;;29.47;20.80;;;18.60;99.90;;;;;;5018100;28;20198;-84
2022/06/09 04:55:37;;;;;;;31.07;21.30;;;18.70;99.90;;;;;;5033741;28;20187;-83
2022/06/09 04:58:07;;;;;;;27.90;20.67;;;18.70;99.90;;;;;;5015936;28;20191;-83
2022/06/09 05:00:34;;;;;;;27.60;20.27;;;18.70;99.90;;;;;;5015864;28;20688;-83
2022/06/09 05:03:01;;;;;;;25.53;19.07;;;18.70;99.90;;;;;;5015868;28;20227;-84
2022/06/09 05:05:32;;;;;;;26.93;20.37;;;18.70;99.90;;;;;;5015893;28;20260;-88
2022/06/09 05:08:00;;;;;;;26.70;20.07;;;18.80;99.90;;;;;;5015874;28;20233;-87
2022/06/09 05:10:28;;;;;;;30.63;20.47;;;18.80;99.90;;;;;;5034150;28;20195;-85
2022/06/09 05:12:56;;;;;;;24.47;19.87;;;18.90;99.90;;;;;;5033935;28;20229;-80
2022/06/09 05:15:24;;;;;;;29.87;19.63;;;18.90;99.90;;;;;;5016671;28;20207;-76
2022/06/09 05:17:52;;;;;;;25.87;19.37;;;19.00;99.90;;;;;;5015574;28;20675;-77
2022/06/09 05:20:23;;;;;;;26.70;19.97;;;19.00;99.90;;;;;;5016101;28;20210;-76
2022/06/09 05:22:50;;;;;;;26.43;19.33;;;19.20;99.90;;;;;;5032266;28;20317;-78
2022/06/09 05:25:18;;;;;;;27.87;19.63;;;19.30;99.90;;;;;;5033534;28;20192;-76
2022/06/09 05:27:45;;;;;;;26.63;19.07;;;19.50;99.90;;;;;;5033645;28;20203;-84
2022/06/09 05:30:16;;;;;;;26.77;19.70;;;19.60;99.90;;;;;;5016105;28;20206;-82
2022/06/09 05:32:44;;;;;;;23.37;17.47;;;19.70;99.90;;;;;;5016033;28;20738;-87
2022/06/09 05:35:11;;;;;;;23.13;18.27;;;19.80;99.90;;;;;;5016382;28;20195;-86
2022/06/09 05:46:00;;;;;;;20.30;15.67;;;20.00;99.90;;;;;;5027615;28;20191;-79
2022/06/09 05:48:27;;;;;;;21.50;16.57;;;20.10;99.90;;;;;;5039715;28;20245;-81
2022/06/09 05:50:55;;;;;;;24.23;16.97;;;20.20;99.90;;;;;;5044800;28;20191;-76
2022/06/09 05:53:22;;;;;;;20.43;15.77;;;20.30;99.90;;;;;;5016320;28;20200;-87
2022/06/09 05:55:49;;;;;;;20.67;16.73;;;20.40;99.90;;;;;;5016063;28;20266;-89
2022/06/09 05:58:16;;;;;;;21.57;16.50;;;20.60;99.90;;;;;;5015756;28;20192;-86
2022/06/09 06:00:45;;;;;;;19.60;15.77;;;20.50;99.90;;;;;;5032173;28;20203;-85
2022/06/09 06:03:16;;;;;;;19.90;15.87;;;20.70;99.90;;;;;;5015546;28;20227;-84
2022/06/09 06:08:29;;;;;;;19.77;14.97;;;21.00;99.90;;;;;;5014950;28;20657;-74
2022/06/09 06:10:56;;;;;;;20.53;15.13;;;21.30;99.90;;;;;;5029887;28;20202;-76
2022/06/09 06:13:27;;;;;;;20.87;14.80;;;21.50;99.90;;;;;;5014669;28;20211;-76
2022/06/09 06:16:06;;;;;;;18.33;13.53;;;21.80;99.90;;;;;;5032698;28;20201;-76
2022/06/09 06:18:54;;;;;;;17.07;13.13;;;21.90;99.90;;;;;;5031384;28;20278;-79
2022/06/09 06:21:21;;;;;;;17.47;12.70;;;22.20;99.90;;;;;;5014827;28;20227;-75
2022/06/09 06:23:48;;;;;;;22.87;13.37;;;22.40;99.90;;;;;;5032421;28;20220;-84
2022/06/09 06:26:19;;;;;;;15.20;13.00;;;22.70;99.90;;;;;;5032770;28;20203;-80
2022/06/09 06:28:50;;;;;;;20.50;13.20;;;22.80;99.90;;;;;;5015083;28;20262;-80
2022/06/09 06:31:18;;;;;;;15.32;12.40;;;22.80;99.90;;;;;;5030997;28;20612;-75
2022/06/09 06:33:45;;;;;;;17.03;13.13;;;23.00;99.90;;;;;;5014458;28;20220;-80
2022/06/09 06:36:50;;;;;;;16.70;13.30;;;23.10;99.90;;;;;;5014832;28;20192;-78
2022/06/09 06:39:23;;;;;;;15.57;12.27;;;23.20;99.90;;;;;;4992158;28;20230;-76
2022/06/09 06:41:50;;;;;;;17.57;13.80;;;23.30;99.90;;;;;;4995140;28;20577;-86
2022/06/09 06:44:18;;;;;;;17.43;13.57;;;23.00;99.90;;;;;;4995473;28;20581;-83
2022/06/09 06:51:22;;;;;;;20.63;15.23;;;22.80;99.90;;;;;;4907949;29;20255;-77
2022/06/09 06:54:06;;;;;;;19.70;16.73;;;22.40;99.90;;;;;;4890081;29;20209;-81
2022/06/09 06:56:35;;;;;;;26.03;16.73;;;22.20;99.90;;;;;;4866687;29;20205;-75
2022/06/09 06:59:03;;;;;;;23.20;16.73;;;22.10;99.90;;;;;;4879776;29;20312;-86
2022/06/09 07:01:30;;;;;;;22.33;17.50;;;21.80;99.90;;;;;;4881091;29;20201;-76
2022/06/09 07:03:58;;;;;;;23.67;17.80;;;21.50;99.90;;;;;;4879677;29;20224;-82
2022/06/09 07:06:25;;;;;;;22.53;17.03;;;21.50;99.90;;;;;;4863213;29;20619;-78
2022/06/09 07:08:55;;;;;;;23.37;16.83;;;21.80;99.90;;;;;;4879783;29;20295;-87
2022/06/09 07:11:25;;;;;;;22.67;18.10;;;22.30;99.90;;;;;;4879470;29;20243;-87
2022/06/09 07:13:54;;;;;;;21.57;17.30;;;22.70;99.90;;;;;;4880323;29;20204;-89
2022/06/09 07:16:21;;;;;;;19.92;16.60;;;23.10;99.90;;;;;;4880581;29;20662;-87
2022/06/09 07:19:30;;;;;;;23.25;17.65;;;23.20;99.90;;;;;;4879454;29;20205;-78
2022/06/09 07:22:02;;;;;;;23.03;17.27;;;23.30;99.90;;;;;;4880812;29;20252;-76
2022/06/09 07:24:35;;;;;;;24.73;18.40;;;23.50;99.90;;;;;;4880276;29;20706;-79
2022/06/09 07:27:02;;;;;;;21.63;16.50;;;23.70;99.90;;;;;;4917052;29;20651;-83
2022/06/09 07:29:30;;;;;;;24.63;17.15;;;23.90;99.90;;;;;;4955524;29;20752;-78
2022/06/09 07:32:03;;;;;;;23.83;17.38;;;24.10;99.90;;;;;;4995626;28;20290;-76
2022/06/09 07:34:31;;;;;;;21.85;17.55;;;24.20;99.90;;;;;;5008941;28;20219;-77
2022/06/09 07:36:58;;;;;;;20.92;17.27;;;24.30;99.90;;;;;;5033553;28;20813;-77
2022/06/09 07:39:25;;;;;;;23.30;17.58;;;24.10;99.90;;;;;;5033748;28;20290;-76
2022/06/09 07:41:55;;;;;;;19.88;16.70;;;24.10;99.90;;;;;;5017920;28;20302;-77
2022/06/09 07:44:22;;;;;;;23.20;17.27;;;24.10;99.90;;;;;;5023566;28;20257;-77
2022/06/09 07:46:51;;;;;;;19.92;15.70;;;24.10;99.90;;;;;;5016857;28;20196;-79
2022/06/09 07:49:18;;;;;;;21.83;14.60;;;24.20;99.90;;;;;;5015436;28;20395;-78
2022/06/09 07:51:45;;;;;;;16.67;13.63;;;24.20;99.90;;;;;;5016969;28;20652;-78
2022/06/09 07:54:14;;;;;;;18.38;14.45;;;24.20;99.90;;;;;;5034524;28;20203;-82
2022/06/09 07:56:50;;;;;;;24.13;15.15;;;24.20;99.90;;;;;;5032982;28;20295;-76
2022/06/09 08:04:00;;;;;;;18.67;15.02;;;24.20;99.90;;;;;;4954509;28;20238;-81
2022/06/09 08:06:46;;;;;;;24.52;16.55;;;24.50;99.90;;;;;;4885855;29;20634;-79
2022/06/09 08:13:03;;;;;;;17.08;13.18;;;25.00;99.90;;;;;;4845375;29;20210;-79
2022/06/09 08:15:37;;;;;;;17.30;14.07;;;25.30;99.90;;;;;;4847773;29;20187;-79
2022/06/09 08:18:11;;;;;;;17.45;14.55;;;25.50;99.90;;;;;;4846565;29;20206;-80
2022/06/09 08:20:42;;;;;;;21.63;13.98;;;25.40;99.90;;;;;;4847920;29;20211;-79
2022/06/09 08:23:34;;;;;;;17.60;14.15;;;25.60;99.90;;;;;;4847492;29;20327;-80
2022/06/09 08:26:40;;;;;;;15.25;12.95;;;25.70;99.90;;;;;;4846232;29;20723;-77
2022/06/09 08:29:37;;;;;;;17.20;12.23;;;26.70;99.90;;;;;;4832823;29;20225;-78
2022/06/09 08:32:32;;;;;;;17.45;12.55;;;27.40;99.90;;;;;;4835345;29;20719;-77
2022/06/09 08:35:02;;;;;;;12.60;10.77;;;27.80;99.90;;;;;;4832410;29;20614;-79
2022/06/09 08:37:55;;;;;;;13.13;10.30;;;28.30;99.90;;;;;;4859589;29;20202;-78
2022/06/09 08:41:09;;;;;;;11.43;10.23;;;28.20;99.90;;;;;;4873581;29;20666;-78
2022/06/09 08:44:10;;;;;;;12.55;10.35;;;28.30;99.90;;;;;;4900872;29;20224;-82
2022/06/09 08:47:19;;;;;;;;;;;;;;;;;;;;;
2022/06/09 08:50:26;;;;;;;10.30;9.30;;;28.40;99.90;;;;;;4974542;28;20212;-75
2022/06/09 08:53:12;;;;;;;11.13;9.90;;;29.00;99.90;;;;;;5014202;28;20206;-76
2022/06/09 08:55:45;;;;;;;10.98;9.88;;;29.10;99.90;;;;;;4996463;28;20206;-75
2022/06/09 08:58:48;;;;;;;10.93;9.75;;;29.50;99.90;;;;;;4996602;28;20619;-75
2022/06/09 09:02:05;;;;;;;10.43;9.38;;;29.80;99.90;;;;;;5032395;28;20211;-78
2022/06/09 09:04:42;;;;;;;11.82;10.48;;;29.70;99.90;;;;;;5015788;28;20227;-78
2022/06/09 09:07:30;;;;;;;11.20;9.65;;;29.10;99.90;;;;;;5031936;28;20191;-78
2022/06/09 09:10:13;;;;;;;11.27;9.95;;;29.20;99.90;;;;;;5008053;28;20203;-78
2022/06/09 09:13:01;;;;;;;11.23;10.07;;;29.10;99.90;;;;;;5035486;28;20711;-75
2022/06/09 09:16:09;;;;;;;14.00;12.55;;;29.50;99.90;;;;;;5035914;28;20206;-78
2022/06/09 09:19:03;;;;;;;14.70;10.82;;;29.80;99.90;;;;;;4919513;29;20575;-85
2022/06/09 09:22:08;;;;;;;15.90;11.10;;;30.00;99.90;;;;;;4914742;29;20195;-85
2022/06/09 09:25:47;;;;;;;13.55;10.63;;;30.00;99.90;;;;;;4914450;29;20650;-82
2022/06/09 09:28:32;;;;;;;11.48;10.27;;;30.10;99.90;;;;;;4917000;29;20208;-80
2022/06/09 09:31:25;;;;;;;12.20;10.43;;;30.60;99.90;;;;;;4952916;29;20293;-79
2022/06/09 09:34:03;;;;;;;11.55;10.20;;;30.80;99.90;;;;;;4917082;29;20222;-80
2022/06/09 09:37:43;;;;;;;11.10;9.93;;;30.60;99.90;;;;;;4931909;29;20206;-77
2022/06/09 09:40:35;;;;;;;10.43;9.40;;;30.70;99.90;;;;;;4862284;29;20292;-76
2022/06/09 09:43:36;;;;;;;10.95;9.90;;;31.20;99.90;;;;;;4892895;29;20235;-78
2022/06/09 09:46:26;;;;;;;11.40;10.27;;;31.60;99.90;;;;;;4876380;29;20627;-78
2022/06/09 09:49:15;;;;;;;12.02;10.85;;;31.80;99.90;;;;;;4893562;29;20234;-78
2022/06/09 09:52:37;;;;;;;11.82;10.55;;;32.30;99.90;;;;;;4933405;29;20606;-79
2022/06/09 09:55:21;;;;;;;12.80;9.77;;;31.80;99.90;;;;;;4930418;29;20206;-78
2022/06/09 09:58:34;;;;;;;12.00;10.05;;;31.50;99.90;;;;;;4933371;29;20203;-76
2022/06/09 10:01:27;;;;;;;12.25;9.73;;;31.40;99.90;;;;;;4936402;29;20209;-76
2022/06/09 10:14:54;;;;;;;9.38;8.10;;;30.70;99.90;;;;;;4933311;29;20239;-75
2022/06/09 10:17:48;;;;;;;12.00;8.38;;;31.30;99.90;;;;;;5008616;28;20180;-76
2022/06/09 10:21:03;;;;;;;12.93;10.05;;;31.60;99.90;;;;;;4994100;28;20195;-77
2022/06/09 10:23:43;;;;;;;13.50;9.35;;;31.90;99.90;;;;;;4976517;28;20256;-74
2022/06/09 10:27:03;;;;;;;9.07;8.18;;;31.70;99.90;;;;;;4994558;28;20193;-75
2022/06/09 10:30:19;;;;;;;9.15;8.10;;;31.50;99.90;;;;;;4913346;29;20203;-74
2022/06/09 10:33:14;;;;;;;9.23;8.18;;;31.60;99.90;;;;;;4936311;29;20270;-75
2022/06/09 10:36:16;;;;;;;8.70;7.85;;;31.80;99.90;;;;;;4919197;29;20671;-74
2022/06/09 10:39:07;;;;;;;8.15;7.25;;;31.90;99.90;;;;;;4951753;29;20269;-73
2022/06/09 10:42:14;;;;;;;8.77;7.78;;;32.30;99.90;;;;;;4955351;29;20301;-73
2022/06/09 10:45:32;;;;;;;9.07;7.35;;;32.70;99.90;;;;;;4917122;29;20296;-75
2022/06/09 10:56:18;;;;;;;8.80;7.90;;;33.30;99.90;;;;;;4916265;29;20247;-74
2022/06/09 11:03:15;;;;;;;7.63;6.85;;;34.10;99.90;;;;;;4863472;29;20188;-73
2022/06/09 11:06:37;;;;;;;7.18;6.28;;;34.30;99.90;;;;;;4838082;29;20221;-75
2022/06/09 11:09:12;;;;;;;6.63;6.03;;;34.80;99.90;;;;;;4860643;29;20202;-74
2022/06/09 11:11:59;;;;;;;6.70;6.07;;;35.50;98.30;;;;;;4860792;29;20232;-75
2022/06/09 11:14:32;;;;;;;7.43;6.50;;;35.30;97.00;;;;;;4860794;29;20758;-75
2022/06/09 11:17:56;;;;;;;;;;;;;;;;;;;;;
2022/06/09 11:22:01;;;;;;;7.28;6.57;;;35.30;93.40;;;;;;4856212;29;20198;-75
2022/06/09 11:25:30;;;;;;;7.55;6.22;;;35.40;95.20;;;;;;4843341;29;20234;-75
2022/06/09 11:28:42;;;;;;;6.60;5.57;;;36.00;94.30;;;;;;4826942;29;20212;-75
2022/06/09 11:32:04;;;;;;;7.20;5.53;;;36.20;90.20;;;;;;4841672;29;20210;-75
2022/06/09 11:35:12;;;;;;;6.18;5.57;;;36.20;90.20;;;;;;4841020;29;20704;-75
2022/06/09 11:38:18;;;;;;;7.82;6.40;;;36.50;84.50;;;;;;4841807;29;20210;-75
2022/06/09 11:45:54;;;;;;;6.20;5.60;;;35.70;83.10;;;;;;4853889;29;20764;-75
2022/06/09 11:52:47;;;;;;;6.85;5.53;;;36.40;78.80;;;;;;4896990;29;20366;-75
2022/06/09 11:56:02;;;;;;;5.70;5.15;;;36.40;76.30;;;;;;4862803;29;20209;-76
2022/06/09 11:59:02;;;;;;;6.43;5.53;;;36.20;73.00;;;;;;4914243;29;20247;-74
2022/06/09 12:01:45;;;;;;;7.53;5.20;;;36.50;68.10;;;;;;4928549;28;20578;-75
2022/06/09 12:13:23;;;;;;;5.80;5.15;;;36.50;68.20;;;;;;4883758;29;20200;-75
2022/06/09 12:15:53;;;;;;;8.07;5.43;;;36.70;63.90;;;;;;4836512;29;20206;-75
2022/06/09 12:18:32;;;;;;;6.85;5.10;;;37.10;60.50;;;;;;4824997;29;20230;-74
2022/06/09 12:21:45;;;;;;;;;;;;;;;;;;;;;
2022/06/09 12:25:17;;;;;;;6.25;5.65;;;37.10;60.90;;;;;;4847046;29;20239;-74
2022/06/09 12:27:50;;;;;;;7.90;5.20;;;37.30;61.90;;;;;;4879425;29;20228;-75
2022/06/09 12:30:26;;;;;;;5.88;5.25;;;38.00;59.90;;;;;;4880695;29;20255;-76
2022/06/09 12:33:15;;;;;;;10.48;5.60;;;38.20;59.30;;;;;;4890880;29;20382;-75
2022/06/09 12:38:57;;;;;;;7.68;5.60;;;36.80;58.00;;;;;;4881628;29;20204;-74
2022/06/09 12:41:43;;;;;;;6.57;5.90;;;36.70;60.20;;;;;;4880894;29;20226;-75
2022/06/09 12:44:29;;;;;;;6.88;6.00;;;36.40;58.20;;;;;;4921717;28;20611;-74
2022/06/09 12:47:25;;;;;;;8.02;5.78;;;36.20;60.90;;;;;;4957509;28;20280;-74
2022/06/09 12:49:59;;;;;;;10.60;6.60;;;35.30;62.10;;;;;;5028683;28;20213;-75
2022/06/09 12:52:43;;;;;;;8.10;6.40;;;34.90;64.20;;;;;;5029762;28;20210;-74
2022/06/09 12:55:59;;;;;;;6.78;6.07;;;34.60;66.20;;;;;;5042236;28;20202;-72
2022/06/09 12:58:57;;;;;;;9.43;7.07;;;34.90;63.80;;;;;;5028226;28;20212;-74
2022/06/09 13:02:11;;;;;;;9.65;6.57;;;34.60;64.70;;;;;;5040480;28;20183;-73
2022/06/09 13:05:27;;;;;;;8.95;6.63;;;34.60;65.90;;;;;;5043741;28;20222;-73
2022/06/09 13:08:52;;;;;;;7.07;6.38;;;34.10;65.90;;;;;;5031245;28;20206;-72
2022/06/09 13:15:34;;;;;;;7.95;6.10;;;34.60;63.00;;;;;;4956281;28;20194;-74
2022/06/09 13:18:11;;;;;;;6.60;5.90;;;34.90;60.90;;;;;;4971872;28;20201;-74
2022/06/09 13:21:06;;;;;;;9.27;6.60;;;35.70;62.90;;;;;;4971887;28;20193;-74
2022/06/09 13:23:48;;;;;;;6.63;6.03;;;35.80;59.20;;;;;;4930462;29;20207;-74
2022/06/09 13:26:43;;;;;;;6.35;5.75;;;36.00;61.30;;;;;;4914391;29;20203;-74
2022/06/09 13:29:35;;;;;;;8.00;5.75;;;35.80;59.80;;;;;;4902725;29;20579;-73
2022/06/09 13:32:28;;;;;;;6.65;5.95;;;35.80;59.80;;;;;;4892973;29;20208;-74
2022/06/09 13:40:18;;;;;;;6.65;5.78;;;34.90;60.30;;;;;;4902517;29;20641;-79
2022/06/09 13:43:04;;;;;;;10.60;6.18;;;34.00;65.10;;;;;;4902696;29;20204;-78
2022/06/09 13:46:09;;;;;;;7.28;5.70;;;33.40;65.30;;;;;;4895232;29;20804;-77
2022/06/09 13:48:56;;;;;;;8.13;5.90;;;33.00;66.40;;;;;;4895609;29;20208;-76
2022/06/09 13:52:17;;;;;;;7.35;6.20;;;32.60;69.60;;;;;;4905441;29;20263;-77
2022/06/09 13:55:27;;;;;;;9.45;5.90;;;32.10;70.60;;;;;;4933044;29;20753;-78
2022/06/09 13:58:39;;;;;;;7.63;6.05;;;31.90;69.30;;;;;;4936276;29;20194;-76
2022/06/09 14:01:11;;;;;;;9.98;6.50;;;31.60;70.10;;;;;;4943690;28;20204;-79
2022/06/09 14:03:46;;;;;;;9.75;6.47;;;31.40;70.80;;;;;;4971867;28;20258;-77
2022/06/09 14:06:34;;;;;;;7.18;6.05;;;31.30;73.00;;;;;;4939973;29;20257;-78
2022/06/09 14:09:03;;;;;;;7.47;5.93;;;31.10;73.00;;;;;;4956124;29;20255;-79
2022/06/09 14:12:06;;;;;;;9.32;6.03;;;30.90;73.30;;;;;;4956085;29;20206;-79
2022/06/09 14:14:46;;;;;;;7.75;6.38;;;30.60;71.70;;;;;;4956463;29;20807;-78
2022/06/09 14:18:07;;;;;;;;;;;;;;;;;;;;;
2022/06/09 14:21:06;;;;;;;7.63;5.85;;;30.70;74.60;;;;;;5014158;28;20187;-80
2022/06/09 14:23:43;;;;;;;9.15;5.82;;;31.10;76.20;;;;;;4997977;28;20656;-78
2022/06/09 14:26:40;;;;;;;7.57;5.70;;;31.40;74.70;;;;;;5032679;28;20211;-78
2022/06/09 14:29:40;;;;;;;9.65;6.05;;;31.70;72.60;;;;;;5037860;28;20187;-80
2022/06/09 14:32:22;;;;;;;8.23;6.00;;;31.70;73.80;;;;;;5037555;28;20309;-81
2022/06/09 14:34:58;;;;;;;11.50;6.00;;;31.50;71.20;;;;;;5018374;28;20180;-81
2022/06/09 14:42:17;;;;;;;6.68;5.90;;;31.30;77.10;;;;;;4953204;29;20320;-79
2022/06/09 14:47:44;;;;;;;8.13;6.10;;;30.80;81.60;;;;;;4935834;29;20261;-80
2022/06/09 14:51:13;;;;;;;10.55;5.90;;;30.60;80.10;;;;;;4929297;29;20206;-80
2022/06/09 14:54:22;;;;;;;10.68;7.70;;;30.40;77.60;;;;;;4936541;29;20258;-81
2022/06/09 14:58:04;;;;;;;14.07;7.82;;;29.60;80.60;;;;;;4896646;29;20381;-79
2022/06/09 15:04:37;;;;;;;12.32;8.88;;;28.70;89.30;;;;;;4878155;29;20549;-79
2022/06/09 15:07:53;;;;;;;17.02;8.45;;;28.70;90.80;;;;;;4897768;29;20295;-78
2022/06/09 15:10:47;;;;;;;13.90;9.20;;;28.60;91.30;;;;;;4897789;29;20672;-79
2022/06/09 15:17:42;;;;;;;12.05;9.88;;;28.50;93.70;;;;;;4881963;29;20242;-79
2022/06/09 15:20:34;;;;;;;11.20;9.45;;;28.40;95.70;;;;;;4882533;29;20208;-80
2022/06/09 15:23:27;;;;;;;13.43;9.27;;;28.30;97.40;;;;;;4897753;29;20280;-78
2022/06/09 15:26:03;;;;;;;12.05;9.77;;;28.60;98.20;;;;;;4919869;29;20222;-77
2022/06/09 15:30:06;;;;;;;13.38;9.93;;;28.80;99.00;;;;;;4936115;29;20297;-80
2022/06/09 15:32:56;;;;;;;11.38;9.50;;;28.70;99.70;;;;;;4878690;29;20233;-79